Time;durP1;ratioP1;P1;durP2;ratioP2;P2;SDS_P1;SDS_P2;PMS_P1;PMS_P2;Temp;Humidity;BMP_temperature;BMP_pressure;BME280_temperature;BME280_humidity;BME280_pressure;Samples;Min_cycle;Max_cycle;Signal;HPM_P1;HPM_P2
2021/01/15 00:01:41;;;;;;;34.13;20.73;;;;;;;1.91;100.00;100617.88;5034005;28;20053;-75
2021/01/15 00:04:27;;;;;;;35.40;21.45;;;;;;;1.89;100.00;100622.13;5020589;28;20029;-75
2021/01/15 00:07:13;;;;;;;32.83;19.77;;;;;;;1.91;100.00;100628.19;5034872;28;20112;-74
2021/01/15 00:09:58;;;;;;;30.75;19.75;;;;;;;1.37;100.00;100629.84;5020341;28;20048;-74
2021/01/15 00:12:44;;;;;;;32.60;20.92;;;;;;;1.45;100.00;100636.00;5034375;28;20025;-75
2021/01/15 00:15:30;;;;;;;31.08;20.17;;;;;;;0.97;100.00;100642.00;5038570;28;20426;-75
2021/01/15 00:18:16;;;;;;;34.38;21.10;;;;;;;1.33;100.00;100640.94;5038540;28;20022;-75
2021/01/15 00:21:01;;;;;;;32.90;21.02;;;;;;;1.10;100.00;100649.13;5038447;28;20040;-75
2021/01/15 00:23:47;;;;;;;33.90;21.55;;;;;;;0.89;100.00;100653.88;5025365;28;20329;-75
2021/01/15 00:26:34;;;;;;;35.25;21.33;;;;;;;0.97;100.00;100652.31;5023739;28;20090;-75
2021/01/15 00:29:19;;;;;;;33.13;20.23;;;;;;;1.06;100.00;100661.09;5024175;28;20040;-75
2021/01/15 00:32:05;;;;;;;33.05;20.40;;;;;;;0.82;100.00;100659.72;5037450;28;20068;-75
2021/01/15 00:34:51;;;;;;;31.45;19.67;;;;;;;0.97;100.00;100667.78;5038050;28;20026;-75
2021/01/15 00:37:38;;;;;;;32.65;20.25;;;;;;;1.12;100.00;100676.69;5038153;28;20025;-74
2021/01/15 00:40:24;;;;;;;31.30;19.63;;;;;;;0.95;100.00;100685.81;5023179;28;20033;-76
2021/01/15 00:43:09;;;;;;;30.00;18.75;;;;;;;0.89;100.00;100683.13;5037890;28;20375;-76
2021/01/15 00:45:55;;;;;;;32.17;19.83;;;;;;;1.21;100.00;100686.31;5037252;28;20464;-75
2021/01/15 00:48:41;;;;;;;32.13;19.63;;;;;;;0.98;100.00;100695.31;5038461;28;20033;-76
2021/01/15 00:51:27;;;;;;;30.42;18.13;;;;;;;0.82;100.00;100690.66;5037544;28;21613;-76
2021/01/15 00:54:13;;;;;;;31.02;18.90;;;;;;;1.02;100.00;100697.09;5023372;28;20363;-75
2021/01/15 00:57:00;;;;;;;28.38;18.25;;;;;;;0.71;100.00;100708.50;5036979;28;20014;-75
2021/01/15 00:59:46;;;;;;;28.55;18.77;;;;;;;1.02;100.00;100710.00;5037299;28;20029;-76
2021/01/15 01:02:33;;;;;;;29.23;19.33;;;;;;;1.33;100.00;100708.06;5026651;28;20060;-76
2021/01/15 01:05:21;;;;;;;28.17;17.85;;;;;;;0.46;100.00;100703.66;5037323;28;20364;-75
2021/01/15 01:08:07;;;;;;;28.27;17.30;;;;;;;0.71;100.00;100702.47;5037064;28;20400;-76
2021/01/15 01:10:53;;;;;;;26.27;17.50;;;;;;;0.77;100.00;100700.03;5037217;28;20083;-76
2021/01/15 01:13:39;;;;;;;29.27;17.67;;;;;;;0.85;100.00;100709.69;5036443;28;20372;-75
2021/01/15 01:16:25;;;;;;;29.85;17.30;;;;;;;1.00;100.00;100720.28;5037278;28;20054;-74
2021/01/15 01:19:11;;;;;;;28.70;17.75;;;;;;;1.17;100.00;100716.38;5036584;28;20025;-75
2021/01/15 01:21:57;;;;;;;25.73;15.98;;;;;;;0.71;100.00;100708.50;5036708;28;20031;-76
2021/01/15 01:24:43;;;;;;;27.63;17.23;;;;;;;0.67;100.00;100709.28;5036977;28;20443;-75
2021/01/15 01:27:28;;;;;;;27.88;17.02;;;;;;;0.74;100.00;100710.25;5036941;28;20448;-74
2021/01/15 01:30:15;;;;;;;26.90;17.23;;;;;;;0.68;100.00;100718.72;5037184;28;20395;-75
2021/01/15 01:33:01;;;;;;;27.73;16.35;;;;;;;0.56;100.00;100727.91;5037145;28;20052;-74
2021/01/15 01:35:47;;;;;;;26.58;16.88;;;;;;;0.72;100.00;100725.69;5036617;28;20083;-74
2021/01/15 01:38:34;;;;;;;26.67;16.45;;;;;;;0.70;100.00;100729.09;5036404;28;20021;-74
2021/01/15 01:41:20;;;;;;;26.92;17.70;;;;;;;0.68;100.00;100735.94;5036873;28;20371;-74
2021/01/15 01:44:05;;;;;;;26.10;16.33;;;;;;;0.78;100.00;100736.16;5036559;28;20056;-75
2021/01/15 01:46:53;;;;;;;26.75;17.27;;;;;;;0.58;100.00;100726.22;5036213;28;20131;-75
2021/01/15 01:49:39;;;;;;;23.85;15.82;;;;;;;0.51;100.00;100732.97;5035553;28;20036;-74
2021/01/15 01:52:25;;;;;;;30.63;17.27;;;;;;;0.33;100.00;100724.81;5035929;28;20021;-75
2021/01/15 01:55:12;;;;;;;25.38;16.45;;;;;;;0.40;100.00;100726.69;5036333;28;20029;-75
2021/01/15 01:57:58;;;;;;;26.08;16.83;;;;;;;0.62;100.00;100730.63;5036154;28;20084;-74
2021/01/15 02:00:48;;;;;;;24.73;15.27;;;;;;;0.55;100.00;100737.34;5035946;28;20025;-75
2021/01/15 02:03:33;;;;;;;23.80;15.77;;;;;;;0.37;100.00;100741.22;5035734;28;20479;-75
2021/01/15 02:06:21;;;;;;;23.02;15.32;;;;;;;0.35;100.00;100740.31;5036526;28;20033;-75
2021/01/15 02:09:10;;;;;;;24.65;15.68;;;;;;;0.25;100.00;100753.81;5022258;28;20033;-75
2021/01/15 02:12:09;;;;;;;24.63;15.38;;;;;;;0.30;100.00;100755.66;5036212;28;20026;-75
2021/01/15 02:15:08;;;;;;;24.52;14.82;;;;;;;0.25;100.00;100754.69;5021643;28;20036;-75
2021/01/15 02:18:00;;;;;;;24.85;14.95;;;;;;;-0.08;100.00;100762.44;5036000;28;20059;-75
2021/01/15 02:20:55;;;;;;;22.48;14.88;;;;;;;-0.05;100.00;100761.63;5035507;28;20033;-75
2021/01/15 02:23:44;;;;;;;23.98;15.30;;;;;;;0.24;100.00;100765.78;5036711;28;20139;-75
2021/01/15 02:26:33;;;;;;;24.10;15.35;;;;;;;0.45;100.00;100762.88;5035951;28;20582;-75
2021/01/15 02:29:25;;;;;;;26.85;16.63;;;;;;;0.27;100.00;100765.88;5022120;28;20083;-75
2021/01/15 02:32:42;;;;;;;22.42;14.70;;;;;;;-0.23;100.00;100785.19;5035553;28;20371;-75
2021/01/15 02:35:41;;;;;;;22.90;15.05;;;;;;;0.12;100.00;100788.69;5022040;28;20436;-75
2021/01/15 02:38:42;;;;;;;24.50;15.98;;;;;;;0.16;100.00;100792.22;5035296;28;20037;-75
2021/01/15 02:41:29;;;;;;;24.38;15.63;;;;;;;0.11;100.00;100798.97;5035714;28;20040;-75
2021/01/15 02:44:17;;;;;;;23.95;15.73;;;;;;;0.39;100.00;100801.41;5021983;28;20367;-74
2021/01/15 02:47:07;;;;;;;25.65;15.55;;;;;;;0.13;100.00;100802.44;5035508;28;20061;-74
2021/01/15 02:49:55;;;;;;;24.45;15.90;;;;;;;0.60;100.00;100786.44;5021319;28;20359;-75
2021/01/15 02:52:42;;;;;;;23.67;14.77;;;;;;;-0.12;100.00;100801.81;5034850;28;20447;-75
2021/01/15 02:55:28;;;;;;;25.02;14.40;;;;;;;-0.05;100.00;100796.00;5035307;28;20531;-75
2021/01/15 02:58:14;;;;;;;22.98;14.77;;;;;;;0.15;100.00;100801.63;5021568;28;20029;-75
2021/01/15 03:00:59;;;;;;;24.40;15.73;;;;;;;0.07;100.00;100803.16;5034892;28;20203;-75
2021/01/15 03:03:55;;;;;;;22.35;14.38;;;;;;;0.23;100.00;100805.28;5035199;28;20045;-75
2021/01/15 03:06:49;;;;;;;21.60;14.07;;;;;;;-0.16;100.00;100801.72;5035467;28;20026;-76
2021/01/15 03:09:43;;;;;;;24.23;15.20;;;;;;;-0.09;100.00;100803.59;5021934;28;20456;-74
2021/01/15 03:12:30;;;;;;;23.45;15.15;;;;;;;0.43;100.00;100793.75;5035392;28;20034;-75
2021/01/15 03:15:18;;;;;;;21.48;14.48;;;;;;;0.43;100.00;100782.59;5034293;28;20036;-75
2021/01/15 03:18:06;;;;;;;24.88;15.77;;;;;;;0.48;100.00;100771.53;5035462;28;20108;-75
2021/01/15 03:20:52;;;;;;;24.95;15.65;;;;;;;0.50;100.00;100782.78;5034892;28;20444;-74
2021/01/15 03:23:38;;;;;;;22.65;15.25;;;;;;;0.12;100.00;100783.53;5035488;28;20464;-75
2021/01/15 03:26:24;;;;;;;21.80;14.52;;;;;;;0.45;100.00;100780.91;5034400;28;20452;-75
2021/01/15 03:29:13;;;;;;;22.13;14.02;;;;;;;0.44;100.00;100787.75;5034446;28;20084;-74
2021/01/15 03:31:59;;;;;;;21.42;14.30;;;;;;;0.59;100.00;100798.44;5034489;28;20105;-75
2021/01/15 03:34:45;;;;;;;28.65;16.77;;;;;;;0.12;100.00;100801.56;5020320;28;20509;-75
2021/01/15 03:37:30;;;;;;;24.60;16.20;;;;;;;0.12;100.00;100814.44;5020416;28;20478;-74
2021/01/15 03:40:16;;;;;;;24.75;16.38;;;;;;;0.28;100.00;100813.13;5020324;28;20025;-74
2021/01/15 03:43:22;;;;;;;26.35;16.75;;;;;;;-0.12;100.00;100826.69;5020911;28;20418;-75
2021/01/15 03:46:07;;;;;;;24.55;15.68;;;;;;;0.21;100.00;100832.72;5034076;28;20021;-74
2021/01/15 03:48:53;;;;;;;24.10;15.50;;;;;;;-0.16;100.00;100840.31;5020839;28;20044;-75
2021/01/15 03:51:39;;;;;;;22.00;14.77;;;;;;;-0.07;100.00;100851.72;5020298;28;20025;-75
2021/01/15 03:54:24;;;;;;;22.27;14.55;;;;;;;-0.08;100.00;100855.13;5034352;28;20036;-75
2021/01/15 03:57:11;;;;;;;21.67;14.52;;;;;;;0.03;100.00;100857.97;5033710;28;20021;-74
2021/01/15 03:59:57;;;;;;;24.23;15.70;;;;;;;-0.11;100.00;100859.34;5034880;28;20037;-75
2021/01/15 04:02:43;;;;;;;25.23;16.48;;;;;;;-0.10;100.00;100866.22;5033729;28;20064;-75
2021/01/15 04:05:29;;;;;;;22.70;15.27;;;;;;;0.24;100.00;100870.56;5034565;28;20120;-74
2021/01/15 04:08:15;;;;;;;23.55;15.35;;;;;;;0.02;100.00;100853.69;5034581;28;20029;-74
2021/01/15 04:11:00;;;;;;;20.98;14.55;;;;;;;0.08;100.00;100865.00;5033267;28;20525;-75
2021/01/15 04:13:46;;;;;;;22.13;13.60;;;;;;;0.08;100.00;100861.53;5034554;28;20025;-74
2021/01/15 04:16:32;;;;;;;20.85;14.13;;;;;;;0.30;100.00;100871.59;5033839;28;20032;-76
2021/01/15 04:19:18;;;;;;;22.13;13.77;;;;;;;0.02;100.00;100866.56;5019944;28;20022;-74
2021/01/15 04:22:03;;;;;;;19.13;12.80;;;;;;;0.12;100.00;100867.66;5019963;28;20027;-75
2021/01/15 04:24:49;;;;;;;21.55;14.02;;;;;;;0.08;100.00;100864.13;5035004;28;20509;-75
2021/01/15 04:27:37;;;;;;;19.35;13.32;;;;;;;0.30;100.00;100871.59;5034132;28;20038;-75
2021/01/15 04:30:23;;;;;;;21.67;14.63;;;;;;;-0.01;100.00;100867.34;5020761;28;20057;-75
2021/01/15 04:33:09;;;;;;;21.85;14.27;;;;;;;-0.33;100.00;100867.28;5033909;28;20033;-75
2021/01/15 04:35:54;;;;;;;22.08;14.18;;;;;;;-0.50;100.00;100868.50;5020417;28;20025;-75
2021/01/15 04:38:42;;;;;;;26.42;16.48;;;;;;;-0.01;100.00;100879.34;5019669;28;20034;-75
2021/01/15 04:41:30;;;;;;;28.00;17.77;;;;;;;-0.20;100.00;100877.09;5034040;28;20135;-76
2021/01/15 04:44:16;;;;;;;23.48;15.32;;;;;;;0.16;100.00;100884.94;5033713;28;20072;-75
2021/01/15 04:47:02;;;;;;;21.63;13.55;;;;;;;0.02;100.00;100887.16;5020104;28;20073;-75
2021/01/15 04:49:49;;;;;;;20.40;13.05;;;;;;;-0.04;100.00;100890.44;5020218;28;20040;-74
2021/01/15 04:52:44;;;;;;;20.40;13.15;;;;;;;-0.09;100.00;100894.59;5019835;28;20033;-75
2021/01/15 04:55:33;;;;;;;19.67;12.52;;;;;;;-0.03;100.00;100899.03;5020274;28;20033;-75
2021/01/15 04:58:19;;;;;;;17.27;12.20;;;;;;;-0.33;100.00;100905.88;5033812;28;20120;-75
2021/01/15 05:01:06;;;;;;;18.23;12.27;;;;;;;-0.18;100.00;100908.91;5037223;28;20056;-75
2021/01/15 05:03:52;;;;;;;19.58;12.77;;;;;;;-0.31;100.00;100909.38;5017127;28;20052;-76
2021/01/15 05:06:52;;;;;;;17.83;12.60;;;;;;;0.00;100.00;100925.72;5017495;28;20041;-75
2021/01/15 05:09:47;;;;;;;19.85;12.15;;;;;;;0.24;100.00;100919.50;5016967;28;20068;-75
2021/01/15 05:12:43;;;;;;;17.25;11.55;;;;;;;0.03;100.00;100921.50;5016155;28;20041;-75
2021/01/15 05:15:29;;;;;;;19.33;12.10;;;;;;;0.32;100.00;100920.59;5016872;28;20057;-74
2021/01/15 05:18:17;;;;;;;19.02;12.10;;;;;;;0.36;100.00;100928.41;5015645;28;20053;-76
2021/01/15 05:21:03;;;;;;;16.75;11.98;;;;;;;0.23;100.00;100926.34;5017191;28;20456;-75
2021/01/15 05:23:52;;;;;;;17.77;12.30;;;;;;;0.19;100.00;100921.94;5017349;28;20042;-75
2021/01/15 05:26:39;;;;;;;19.33;12.32;;;;;;;0.16;100.00;100931.31;5017700;28;20394;-74
2021/01/15 05:29:25;;;;;;;17.15;10.80;;;;;;;-0.22;100.00;100936.28;5016470;28;20330;-75
2021/01/15 05:32:11;;;;;;;18.13;11.98;;;;;;;0.32;100.00;100939.47;5017254;28;20034;-75
2021/01/15 05:34:56;;;;;;;16.85;11.45;;;;;;;0.25;100.00;100942.75;5015445;28;20383;-76
2021/01/15 05:37:55;;;;;;;17.00;11.40;;;;;;;0.31;100.00;100927.44;5018077;28;20026;-75
2021/01/15 05:40:41;;;;;;;16.40;10.88;;;;;;;0.05;100.00;100931.88;5017087;28;20479;-75
2021/01/15 05:43:30;;;;;;;16.40;11.18;;;;;;;0.21;100.00;100935.75;5016280;28;20562;-76
2021/01/15 05:46:21;;;;;;;16.80;11.82;;;;;;;0.43;100.00;100932.91;5016662;28;20041;-75
2021/01/15 05:49:09;;;;;;;18.60;11.77;;;;;;;0.43;100.00;100938.06;5017495;28;20037;-75
2021/01/15 05:52:08;;;;;;;18.13;11.35;;;;;;;0.20;100.00;100934.00;5016543;28;20409;-75
2021/01/15 05:54:55;;;;;;;16.92;10.88;;;;;;;0.22;100.00;100937.50;5016741;28;20026;-76
2021/01/15 05:57:41;;;;;;;15.38;11.07;;;;;;;0.17;100.00;100940.78;5016428;28;20123;-75
2021/01/15 06:00:29;;;;;;;18.45;10.88;;;;;;;0.23;100.00;100941.81;5015701;28;20160;-74
2021/01/15 06:03:15;;;;;;;18.25;11.68;;;;;;;0.33;100.00;100941.25;5022018;28;20049;-76
2021/01/15 06:06:01;;;;;;;16.88;11.32;;;;;;;0.15;100.00;100945.03;5021134;28;20092;-74
2021/01/15 06:08:48;;;;;;;17.25;10.77;;;;;;;0.13;100.00;100950.13;5036109;28;20068;-74
2021/01/15 06:11:36;;;;;;;19.50;12.18;;;;;;;0.21;100.00;100950.34;5035033;28;20359;-74
2021/01/15 06:14:24;;;;;;;17.65;11.57;;;;;;;0.20;100.00;100948.59;5036277;28;20029;-75
2021/01/15 06:17:09;;;;;;;18.90;11.75;;;;;;;0.17;100.00;100958.81;5022433;28;20121;-75
2021/01/15 06:19:58;;;;;;;16.70;11.50;;;;;;;0.15;100.00;100956.19;5021390;28;20347;-75
2021/01/15 06:22:47;;;;;;;19.42;12.77;;;;;;;0.31;100.00;100960.06;5021263;28;20103;-75
2021/01/15 06:25:35;;;;;;;21.95;13.95;;;;;;;-0.19;100.00;100962.06;5035819;28;20022;-75
2021/01/15 06:28:33;;;;;;;22.92;14.48;;;;;;;0.08;100.00;100977.44;5035320;28;20045;-75
2021/01/15 06:31:19;;;;;;;25.33;16.92;;;;;;;0.23;100.00;100979.59;5036178;28;20033;-75
2021/01/15 06:34:06;;;;;;;35.67;20.02;;;;;;;-0.21;100.00;100981.78;5021942;28;20025;-75
2021/01/15 06:36:54;;;;;;;28.35;17.85;;;;;;;-0.04;100.00;100988.28;5022961;28;20022;-74
2021/01/15 06:39:39;;;;;;;26.52;17.30;;;;;;;0.00;100.00;100992.69;5035691;28;20033;-74
2021/01/15 06:42:29;;;;;;;30.73;18.45;;;;;;;-0.22;100.00;100997.16;5036316;28;20370;-76
2021/01/15 06:45:16;;;;;;;30.25;17.95;;;;;;;-0.16;100.00;101010.25;5035646;28;20104;-75
2021/01/15 06:48:08;;;;;;;29.50;18.45;;;;;;;0.37;100.00;101011.75;5035569;28;20375;-75
2021/01/15 06:50:56;;;;;;;34.92;21.00;;;;;;;0.20;100.00;101016.44;5035331;28;20037;-76
2021/01/15 06:53:42;;;;;;;37.72;20.85;;;;;;;0.53;100.00;101009.66;5035311;28;20033;-76
2021/01/15 06:56:35;;;;;;;35.58;20.05;;;;;;;0.45;100.00;101011.16;5036002;28;20025;-75
2021/01/15 06:59:32;;;;;;;38.35;20.33;;;;;;;0.22;100.00;101017.38;5036897;28;20036;-74
2021/01/15 07:02:27;;;;;;;38.17;21.42;;;;;;;0.61;100.00;101030.47;5036758;28;20467;-75
2021/01/15 07:05:15;;;;;;;39.30;21.65;;;;;;;-0.03;100.00;101033.78;5037531;28;20124;-74
2021/01/15 07:08:02;;;;;;;43.20;24.38;;;;;;;0.10;100.00;101035.03;5023235;28;20109;-75
2021/01/15 07:10:48;;;;;;;44.25;24.50;;;;;;;0.58;100.00;101041.59;5035135;28;20087;-75
2021/01/15 07:13:38;;;;;;;45.08;25.38;;;;;;;1.08;100.00;101048.09;5021367;28;20091;-74
2021/01/15 07:16:38;;;;;;;45.72;25.50;;;;;;;1.06;100.00;101048.03;5034444;28;20099;-74
2021/01/15 07:19:44;;;;;;;40.22;22.58;;;;;;;1.42;100.00;101061.84;5035001;28;20069;-74
2021/01/15 07:22:55;;;;;;;23.88;15.02;;;;;;;1.18;100.00;101069.00;5034515;28;20025;-75
2021/01/15 07:25:49;;;;;;;24.38;14.70;;;;;;;1.05;100.00;101074.69;5017541;28;20041;-74
2021/01/15 07:28:36;;;;;;;32.42;18.27;;;;;;;1.40;100.00;101080.72;5034637;28;20039;-74
2021/01/15 07:31:24;;;;;;;25.90;14.85;;;;;;;1.38;100.00;101083.28;5035253;28;20452;-74
2021/01/15 07:34:16;;;;;;;18.58;12.02;;;;;;;1.31;100.00;101094.25;5034560;28;20033;-74
2021/01/15 07:37:23;;;;;;;19.25;12.70;;;;;;;1.50;100.00;101095.59;5034971;28;20351;-74
2021/01/15 07:40:14;;;;;;;18.48;12.55;;;;;;;1.84;100.00;101095.59;5034043;28;20467;-74
2021/01/15 07:43:00;;;;;;;22.25;13.02;;;;;;;2.00;100.00;101098.53;5033776;28;20410;-74
2021/01/15 07:45:46;;;;;;;19.38;12.40;;;;;;;1.40;100.00;101097.06;5033894;28;20021;-76
2021/01/15 07:48:32;;;;;;;22.90;14.05;;;;;;;1.18;100.00;101101.66;5034335;28;20490;-74
2021/01/15 07:51:18;;;;;;;23.92;15.15;;;;;;;1.56;100.00;101108.66;5033733;28;20447;-75
2021/01/15 07:54:04;;;;;;;23.60;14.15;;;;;;;1.97;100.00;101108.78;5034574;28;20468;-74
2021/01/15 07:56:49;;;;;;;23.08;15.05;;;;;;;1.63;100.00;101116.59;5034345;28;20040;-76
2021/01/15 07:59:35;;;;;;;21.42;14.20;;;;;;;2.09;100.00;101118.56;5020683;28;20047;-74
2021/01/15 08:02:21;;;;;;;20.05;12.55;;;;;;;2.18;100.00;101114.47;5033791;28;20053;-75
2021/01/15 08:05:08;;;;;;;19.73;13.30;;;;;;;2.46;100.00;101101.31;5020376;28;20460;-75
2021/01/15 08:08:14;;;;;;;19.60;13.63;;;;;;;2.44;100.00;101102.09;5033467;28;20057;-75
2021/01/15 08:11:11;;;;;;;19.67;13.00;;;;;;;2.43;100.00;101103.81;5019360;28;20071;-75
2021/01/15 08:14:16;;;;;;;22.02;14.45;;;;;;;2.57;100.00;101109.28;5034009;28;20025;-75
2021/01/15 08:17:10;;;;;;;18.27;12.70;;;;;;;2.52;100.00;101114.34;5033545;28;20022;-75
2021/01/15 08:19:58;;;;;;;21.75;14.18;;;;;;;3.03;100.00;101122.28;5034738;28;20378;-75
2021/01/15 08:22:44;;;;;;;19.80;13.00;;;;;;;3.45;100.00;101125.63;5033874;28;20033;-75
2021/01/15 08:25:30;;;;;;;17.77;12.85;;;;;;;3.67;100.00;101138.13;5020306;28;20034;-76
2021/01/15 08:28:16;;;;;;;19.40;13.02;;;;;;;3.84;100.00;101141.84;5034102;28;20029;-75
2021/01/15 08:31:03;;;;;;;17.33;12.32;;;;;;;3.82;100.00;101139.22;5033730;28;20120;-76
2021/01/15 08:34:04;;;;;;;20.17;13.73;;;;;;;3.54;100.00;101136.19;5034122;28;20029;-75
2021/01/15 08:36:56;;;;;;;19.60;13.40;;;;;;;3.85;100.00;101138.41;5037899;28;20033;-75
2021/01/15 08:39:45;;;;;;;21.27;13.85;;;;;;;3.46;100.00;101138.63;5037112;28;20021;-75
2021/01/15 08:42:31;;;;;;;20.73;13.57;;;;;;;3.58;100.00;101150.94;5024157;28;20022;-75
2021/01/15 08:45:17;;;;;;;17.50;13.10;;;;;;;3.30;100.00;101149.53;5037675;28;20100;-75
2021/01/15 08:48:06;;;;;;;20.73;13.63;;;;;;;4.53;100.00;101145.50;5037397;28;20116;-75
2021/01/15 08:51:05;;;;;;;19.23;13.32;;;;;;;4.64;100.00;101143.91;5036960;28;20030;-75
2021/01/15 08:54:06;;;;;;;20.33;14.15;;;;;;;4.02;100.00;101150.78;5037147;28;20030;-75
2021/01/15 08:56:52;;;;;;;22.83;14.38;;;;;;;3.69;100.00;101155.44;5023536;28;20037;-75
2021/01/15 08:59:39;;;;;;;20.35;13.80;;;;;;;4.00;100.00;101156.81;5037106;28;20036;-74
2021/01/15 09:02:26;;;;;;;20.30;13.52;;;;;;;3.72;100.00;101139.94;5026525;28;20050;-75
2021/01/15 09:05:15;;;;;;;21.35;14.40;;;;;;;3.77;100.00;101152.97;5036046;28;20470;-75
2021/01/15 09:08:03;;;;;;;19.48;14.52;;;;;;;2.96;100.00;101151.47;5036310;28;20033;-75
2021/01/15 09:10:49;;;;;;;19.40;14.38;;;;;;;3.14;100.00;101146.66;5037142;28;20067;-75
2021/01/15 09:13:38;;;;;;;23.00;15.48;;;;;;;3.10;100.00;101140.53;5036716;28;20091;-74
2021/01/15 09:16:26;;;;;;;21.95;15.18;;;;;;;3.28;100.00;101145.19;5036670;28;20432;-75
2021/01/15 09:19:12;;;;;;;23.75;16.50;;;;;;;3.88;100.00;101146.25;5037757;28;20029;-75
2021/01/15 09:22:00;;;;;;;23.08;15.98;;;;;;;3.81;100.00;101146.97;5036589;28;20024;-75
2021/01/15 09:24:46;;;;;;;22.77;15.80;;;;;;;3.32;100.00;101150.47;5036657;28;20029;-75
2021/01/15 09:27:32;;;;;;;22.90;14.88;;;;;;;3.55;100.00;101148.28;5036797;28;20080;-75
2021/01/15 09:30:18;;;;;;;25.38;15.13;;;;;;;3.55;100.00;101154.34;5036640;28;20025;-75
2021/01/15 09:33:04;;;;;;;22.50;15.10;;;;;;;3.10;100.00;101150.88;5036088;28;20037;-75
2021/01/15 09:35:52;;;;;;;25.23;16.83;;;;;;;2.73;100.00;101148.41;5036717;28;20371;-75
2021/01/15 09:38:38;;;;;;;24.92;16.55;;;;;;;3.58;100.00;101149.19;5037241;28;20026;-75
2021/01/15 09:41:24;;;;;;;23.98;16.77;;;;;;;3.99;100.00;101153.31;5036023;28;20029;-74
2021/01/15 09:44:12;;;;;;;26.15;16.98;;;;;;;3.04;100.00;101155.94;5036591;28;20025;-75
2021/01/15 09:47:00;;;;;;;25.45;17.48;;;;;;;3.49;100.00;101156.81;5035039;28;20108;-76
2021/01/15 09:49:45;;;;;;;27.48;17.92;;;;;;;3.56;100.00;101153.50;5036394;28;20025;-75
2021/01/15 09:52:33;;;;;;;26.88;17.30;;;;;;;3.89;100.00;101148.88;5036449;28;20025;-75
2021/01/15 09:55:19;;;;;;;24.42;17.13;;;;;;;3.78;100.00;101137.44;5035967;28;20033;-73
2021/01/15 09:58:05;;;;;;;25.15;16.98;;;;;;;3.43;100.00;101124.75;5035982;28;20049;-75
2021/01/15 10:00:50;;;;;;;24.33;17.10;;;;;;;3.33;100.00;101123.72;5036118;28;20029;-74
2021/01/15 10:03:36;;;;;;;26.08;17.42;;;;;;;3.44;100.00;101132.56;5035664;28;20107;-74
2021/01/15 10:06:23;;;;;;;25.77;16.52;;;;;;;3.12;100.00;101123.31;5036511;28;20439;-75
2021/01/15 10:09:10;;;;;;;25.83;17.90;;;;;;;3.44;100.00;101124.78;5022441;28;20064;-75
2021/01/15 10:11:56;;;;;;;26.73;17.65;;;;;;;3.09;100.00;101112.91;5035622;28;20533;-74
2021/01/15 10:14:42;;;;;;;24.98;17.92;;;;;;;3.39;100.00;101123.84;5036278;28;20059;-74
2021/01/15 10:17:28;;;;;;;25.23;17.23;;;;;;;3.62;100.00;101125.09;5036301;28;20021;-75
2021/01/15 10:20:13;;;;;;;25.98;17.23;;;;;;;3.59;100.00;101119.88;5022391;28;20037;-75
2021/01/15 10:22:59;;;;;;;26.73;17.60;;;;;;;3.49;100.00;101120.53;5022136;28;20032;-73
2021/01/15 10:25:45;;;;;;;28.63;18.98;;;;;;;3.31;100.00;101114.19;5036272;28;20029;-75
2021/01/15 10:28:31;;;;;;;26.88;17.92;;;;;;;3.12;100.00;101114.69;5035840;28;20029;-75
2021/01/15 10:31:17;;;;;;;29.05;18.92;;;;;;;3.38;100.00;101116.03;5035529;28;20029;-74
2021/01/15 10:34:03;;;;;;;27.60;18.63;;;;;;;3.28;100.00;101109.81;5036175;28;20438;-74
2021/01/15 10:36:50;;;;;;;29.10;18.92;;;;;;;3.57;100.00;101111.19;5036690;28;20025;-73
2021/01/15 10:39:36;;;;;;;26.63;17.85;;;;;;;3.35;100.00;101111.69;5035294;28;20033;-75
2021/01/15 10:42:22;;;;;;;29.88;18.80;;;;;;;3.26;100.00;101105.47;5035748;28;20036;-75
2021/01/15 10:45:08;;;;;;;29.38;18.05;;;;;;;3.53;100.00;101114.56;5035653;28;20025;-75
2021/01/15 10:47:53;;;;;;;29.60;19.30;;;;;;;3.66;100.00;101116.50;5036072;28;20029;-74
2021/01/15 10:50:39;;;;;;;27.67;17.95;;;;;;;3.72;100.00;101107.97;5035480;28;20029;-75
2021/01/15 10:53:25;;;;;;;26.80;18.52;;;;;;;3.96;100.00;101108.34;5021511;28;20040;-74
2021/01/15 10:56:11;;;;;;;28.67;18.35;;;;;;;3.93;100.00;101118.66;5035068;28;20021;-75
2021/01/15 10:58:56;;;;;;;26.48;18.13;;;;;;;4.22;100.00;101118.25;5034583;28;20062;-75
2021/01/15 11:01:50;;;;;;;29.38;18.65;;;;;;;4.35;100.00;101096.81;5035386;28;20053;-75
2021/01/15 11:04:36;;;;;;;30.33;19.25;;;;;;;4.27;100.00;101111.41;5020588;28;20100;-74
2021/01/15 11:07:22;;;;;;;27.77;18.67;;;;;;;4.63;100.00;101104.13;5034910;28;20027;-75
2021/01/15 11:10:08;;;;;;;30.15;19.98;;;;;;;4.61;100.00;101102.34;5020656;28;20029;-75
2021/01/15 11:12:58;;;;;;;28.35;18.35;;;;;;;4.72;100.00;101101.66;5036365;28;20025;-74
2021/01/15 11:15:43;;;;;;;29.52;19.77;;;;;;;4.37;100.00;101100.31;5034315;28;20025;-74
2021/01/15 11:18:29;;;;;;;28.98;19.05;;;;;;;4.22;100.00;101089.72;5034568;28;20025;-74
2021/01/15 11:21:23;;;;;;;29.92;20.23;;;;;;;4.65;100.00;101096.34;5034063;28;20040;-74
2021/01/15 11:24:13;;;;;;;28.10;18.90;;;;;;;4.43;100.00;101081.38;5034430;28;20517;-75
2021/01/15 11:26:58;;;;;;;27.25;18.33;;;;;;;4.45;100.00;101087.44;5034136;28;20060;-74
2021/01/15 11:29:44;;;;;;;26.90;17.83;;;;;;;4.77;100.00;101088.72;5021038;28;20470;-74
2021/01/15 11:32:30;;;;;;;30.13;20.05;;;;;;;5.17;100.00;101094.38;5034775;28;20029;-74
2021/01/15 11:35:16;;;;;;;27.98;18.77;;;;;;;5.17;100.00;101085.69;5034944;28;20040;-75
2021/01/15 11:38:01;;;;;;;27.52;17.80;;;;;;;5.44;100.00;101085.97;5034937;28;20036;-75
2021/01/15 11:40:47;;;;;;;27.23;18.13;;;;;;;5.39;100.00;101090.25;5020074;28;20017;-74
2021/01/15 11:43:38;;;;;;;31.02;18.70;;;;;;;4.92;100.00;101088.91;5034878;28;20485;-75
2021/01/15 11:46:25;;;;;;;30.70;19.52;;;;;;;4.95;100.00;101084.59;5034945;28;20092;-74
2021/01/15 11:49:10;;;;;;;26.52;19.25;;;;;;;5.34;100.00;101086.72;5020633;28;20037;-74
2021/01/15 11:51:56;;;;;;;28.98;19.63;;;;;;;5.45;100.00;101092.91;5034276;28;20033;-74
2021/01/15 11:54:42;;;;;;;28.40;17.70;;;;;;;5.10;100.00;101089.97;5034573;28;20132;-76
2021/01/15 11:57:28;;;;;;;26.42;19.02;;;;;;;5.12;100.00;101096.06;5020430;28;20033;-75
2021/01/15 12:00:14;;;;;;;29.13;18.85;;;;;;;4.91;100.00;101084.56;5020470;28;20037;-75
2021/01/15 12:03:02;;;;;;;29.42;18.92;;;;;;;5.42;100.00;101086.81;5033259;28;20053;-75
2021/01/15 12:05:51;;;;;;;25.98;18.30;;;;;;;4.97;100.00;101095.88;5020323;28;20033;-75
2021/01/15 12:08:37;;;;;;;27.63;17.85;;;;;;;5.22;100.00;101092.69;5033995;28;20029;-75
2021/01/15 12:11:23;;;;;;;29.60;19.83;;;;;;;5.21;100.00;101101.34;5038300;28;20370;-75
2021/01/15 12:14:09;;;;;;;30.00;20.17;;;;;;;5.31;100.00;101097.97;5038345;28;20099;-74
2021/01/15 12:16:57;;;;;;;27.83;19.67;;;;;;;5.43;100.00;101097.22;5038054;28;20022;-75
2021/01/15 12:19:43;;;;;;;29.17;19.58;;;;;;;5.54;100.00;101090.38;5023859;28;20029;-75
2021/01/15 12:22:29;;;;;;;28.65;19.17;;;;;;;5.07;100.00;101089.91;5037756;28;20037;-75
2021/01/15 12:25:15;;;;;;;27.05;19.25;;;;;;;4.78;100.00;101096.53;5038341;28;20021;-75
2021/01/15 12:28:01;;;;;;;25.85;18.27;;;;;;;4.57;100.00;101095.38;5037697;28;20033;-75
2021/01/15 12:30:50;;;;;;;27.17;18.77;;;;;;;5.12;100.00;101096.06;5038432;28;20025;-75
2021/01/15 12:33:35;;;;;;;25.33;17.33;;;;;;;5.14;100.00;101094.31;5037327;28;20443;-74
2021/01/15 12:36:21;;;;;;;28.08;18.88;;;;;;;4.95;100.00;101087.19;5038759;28;20025;-73
2021/01/15 12:39:10;;;;;;;27.38;18.95;;;;;;;5.13;100.00;101087.41;5037705;28;20052;-74
2021/01/15 12:41:55;;;;;;;29.65;20.73;;;;;;;5.32;100.00;101091.91;5038021;28;20048;-75
2021/01/15 12:44:41;;;;;;;30.83;20.58;;;;;;;5.00;100.00;101088.13;5037337;28;20102;-75